N15BC KLAX-KPSP
Flight info
| Callsign | N15BC |
|---|---|
| Flight time | N/A |
| Altitude | 9000 |
| Route | SLI8 SLI V64 TRM |
| Aircraft | P28A/L-AF/A |
Departure
| Time | 2026-04-26 02:23 |
|---|---|
| Airport | Los Angeles International Airport (KLAX) |
Arrival
| Time | N/A |
|---|---|
| Airport | Palm Springs International Airport (KPSP) |
| Time | Latitude | Longitude | Altitude | Speed | Heading |
|---|---|---|---|---|---|
| 2026-04-26 01:57 | 33.94281 | -118.39789 | 120 ft | 0 kts | 65° |
| 2026-04-26 02:14 | 33.94275 | -118.39804 | 118 ft | 2 kts | 65° |
| 2026-04-26 02:14 | 33.94271 | -118.39815 | 120 ft | 0 kts | 65° |
| 2026-04-26 02:14 | 33.94271 | -118.39814 | 120 ft | 0 kts | 83° |
| 2026-04-26 02:14 | 33.94271 | -118.39812 | 118 ft | 0 kts | 152° |
| 2026-04-26 02:15 | 33.94256 | -118.39812 | 120 ft | 1 kts | 192° |
| 2026-04-26 02:15 | 33.94203 | -118.39820 | 119 ft | 10 kts | 185° |
| 2026-04-26 02:15 | 33.94139 | -118.39828 | 120 ft | 9 kts | 186° |
| 2026-04-26 02:15 | 33.94077 | -118.39829 | 120 ft | 9 kts | 172° |
| 2026-04-26 02:16 | 33.94031 | -118.39825 | 120 ft | 0 kts | 177° |
| 2026-04-26 02:16 | 33.94006 | -118.39820 | 120 ft | 9 kts | 158° |
| 2026-04-26 02:16 | 33.93983 | -118.39786 | 117 ft | 0 kts | 111° |
| 2026-04-26 02:16 | 33.93979 | -118.39783 | 120 ft | 4 kts | 163° |
| 2026-04-26 02:17 | 33.93957 | -118.39785 | 119 ft | 8 kts | 194° |
| 2026-04-26 02:17 | 33.93925 | -118.39780 | 120 ft | 5 kts | 141° |
| 2026-04-26 02:17 | 33.93913 | -118.39702 | 118 ft | 18 kts | 78° |
| 2026-04-26 02:17 | 33.93922 | -118.39567 | 120 ft | 10 kts | 84° |
| 2026-04-26 02:18 | 33.93932 | -118.39460 | 120 ft | 15 kts | 83° |
| 2026-04-26 02:18 | 33.93954 | -118.39317 | 116 ft | 19 kts | 92° |
| 2026-04-26 02:18 | 33.93968 | -118.39188 | 120 ft | 14 kts | 92° |
| 2026-04-26 02:18 | 33.93975 | -118.39068 | 120 ft | 14 kts | 84° |
| 2026-04-26 02:19 | 33.93988 | -118.38947 | 120 ft | 15 kts | 78° |
| 2026-04-26 02:19 | 33.94000 | -118.38825 | 120 ft | 15 kts | 83° |
| 2026-04-26 02:19 | 33.94013 | -118.38702 | 118 ft | 15 kts | 83° |
| 2026-04-26 02:19 | 33.94024 | -118.38577 | 120 ft | 15 kts | 79° |
| 2026-04-26 02:20 | 33.94037 | -118.38453 | 120 ft | 15 kts | 83° |
| 2026-04-26 02:20 | 33.94052 | -118.38327 | 120 ft | 15 kts | 86° |
| 2026-04-26 02:20 | 33.94065 | -118.38201 | 120 ft | 15 kts | 87° |
| 2026-04-26 02:20 | 33.94075 | -118.38080 | 120 ft | 10 kts | 80° |
| 2026-04-26 02:21 | 33.94080 | -118.38035 | 120 ft | 0 kts | 101° |
| 2026-04-26 02:22 | 33.94062 | -118.38003 | 118 ft | 9 kts | 152° |
| 2026-04-26 02:22 | 33.94000 | -118.38006 | 120 ft | 5 kts | 209° |
| 2026-04-26 02:22 | 33.93975 | -118.38091 | 120 ft | 27 kts | 261° |
| 2026-04-26 02:22 | 33.93933 | -118.38515 | 159 ft | 66 kts | 259° |
| 2026-04-26 02:23 | 33.93814 | -118.39065 | 357 ft | 70 kts | 258° |
| 2026-04-26 02:23 | 33.93760 | -118.39619 | 617 ft | 65 kts | 275° |
| 2026-04-26 02:23 | 33.93877 | -118.40184 | 734 ft | 78 kts | 294° |
| 2026-04-26 02:23 | 33.93862 | -118.40755 | 994 ft | 79 kts | 250° |
| 2026-04-26 02:24 | 33.93667 | -118.41504 | 1126 ft | 92 kts | 257° |
| 2026-04-26 02:24 | 33.93516 | -118.42205 | 1451 ft | 87 kts | 251° |
| 2026-04-26 02:24 | 33.93325 | -118.42926 | 1644 ft | 93 kts | 257° |
| 2026-04-26 02:24 | 33.93201 | -118.43683 | 1909 ft | 93 kts | 260° |
| 2026-04-26 02:25 | 33.93067 | -118.44469 | 2083 ft | 100 kts | 256° |
| 2026-04-26 02:25 | 33.92875 | -118.45289 | 2301 ft | 100 kts | 254° |
| 2026-04-26 02:25 | 33.92660 | -118.46088 | 2474 ft | 106 kts | 247° |
| 2026-04-26 02:25 | 33.92208 | -118.46893 | 2410 ft | 125 kts | 228° |
| 2026-04-26 02:26 | 33.91535 | -118.47566 | 2480 ft | 125 kts | 221° |
| 2026-04-26 02:26 | 33.90867 | -118.48196 | 2612 ft | 121 kts | 217° |
| 2026-04-26 02:26 | 33.90182 | -118.48763 | 2765 ft | 118 kts | 217° |
| 2026-04-26 02:26 | 33.89496 | -118.49286 | 2919 ft | 117 kts | 213° |
| 2026-04-26 02:27 | 33.88789 | -118.49790 | 3008 ft | 120 kts | 214° |
| 2026-04-26 02:27 | 33.88063 | -118.50328 | 3070 ft | 123 kts | 213° |
| 2026-04-26 02:27 | 33.87259 | -118.50635 | 3252 ft | 118 kts | 195° |
| 2026-04-26 02:27 | 33.86474 | -118.50828 | 3455 ft | 115 kts | 192° |
| 2026-04-26 02:28 | 33.85650 | -118.50939 | 3520 ft | 122 kts | 189° |
| 2026-04-26 02:28 | 33.84826 | -118.51063 | 3734 ft | 113 kts | 191° |
| 2026-04-26 02:28 | 33.84047 | -118.51177 | 3883 ft | 117 kts | 184° |
| 2026-04-26 02:28 | 33.83227 | -118.50942 | 3965 ft | 123 kts | 161° |
| 2026-04-26 02:29 | 33.82447 | -118.50594 | 4171 ft | 116 kts | 158° |
| 2026-04-26 02:29 | 33.81727 | -118.50197 | 4339 ft | 116 kts | 159° |
| 2026-04-26 02:29 | 33.80966 | -118.49827 | 4448 ft | 118 kts | 163° |
| 2026-04-26 02:29 | 33.80214 | -118.49532 | 4669 ft | 112 kts | 163° |
| 2026-04-26 02:30 | 33.79453 | -118.49225 | 4765 ft | 116 kts | 165° |
| 2026-04-26 02:30 | 33.78728 | -118.48964 | 5029 ft | 106 kts | 166° |
| 2026-04-26 02:30 | 33.77970 | -118.48757 | 5000 ft | 122 kts | 174° |
| 2026-04-26 02:30 | 33.77306 | -118.48182 | 5043 ft | 133 kts | 102° |
| 2026-04-26 02:31 | 33.77337 | -118.47015 | 4960 ft | 138 kts | 96° |
| 2026-04-26 02:31 | 33.77283 | -118.45978 | 5272 ft | 121 kts | 93° |
| 2026-04-26 02:31 | 33.77152 | -118.44850 | 5003 ft | 147 kts | 94° |
| 2026-04-26 02:31 | 33.77063 | -118.43700 | 5154 ft | 136 kts | 99° |
| 2026-04-26 02:32 | 33.76897 | -118.42537 | 5037 ft | 147 kts | 92° |
| 2026-04-26 02:32 | 33.76897 | -118.41304 | 5035 ft | 145 kts | 89° |
| 2026-04-26 02:32 | 33.76858 | -118.40220 | 5492 ft | 109 kts | 96° |
| 2026-04-26 02:32 | 33.76749 | -118.39263 | 5604 ft | 116 kts | 100° |
| 2026-04-26 02:33 | 33.76649 | -118.38332 | 5816 ft | 112 kts | 97° |
| 2026-04-26 02:33 | 33.76524 | -118.37378 | 5865 ft | 120 kts | 119° |
| 2026-04-26 02:33 | 33.75978 | -118.36778 | 6234 ft | 90 kts | 124° |
| 2026-04-26 02:33 | 33.75805 | -118.36016 | 6331 ft | 100 kts | 112° |